3II3 weather

Basting Airport
Woodburn, Indiana, United States

Public forecast

Using degrees Fahrenheit for public forecast. Weather courtesy of forecast.io.

METAR (pilot weather report)

Closest report is De Kalb County Airport, 16.6 nm (30.8 km) NW. Retrieved 2019/04/22 22:35 UTC (0 seconds ago):

KGWB 222235Z AUTO 17006KT 10SM CLR 22/08 A3004 RMK AO2

TAF (pilot weather forecast)

Closest forecast is Fort Wayne International Airport, 17.3 nm (32.1 km) WSW. Retrieved 2019/04/22 18:36 UTC (4 hours ago):

TAF KFWA 221734Z 2218/2318 18011G21KT P6SM SCT150 FM230000 17010KT P6SM SCT250 FM231100 22012KT P6SM BKN030 FM231500 27013G24KT P6SM VCSH BKN022